sensor_id;sensor_type;location;lat;lon;timestamp;P1;durP1;ratioP1;P2;durP2;ratioP2
59418;SDS011;45224;50.904;6.038;2022-10-26T00:01:27;9.77;;;3.40;;
59418;SDS011;45224;50.904;6.038;2022-10-26T00:02:58;8.68;;;3.40;;
59418;SDS011;45224;50.904;6.038;2022-10-26T00:04:28;8.93;;;3.33;;
59418;SDS011;45224;50.904;6.038;2022-10-26T00:06:02;9.23;;;3.43;;
59418;SDS011;45224;50.904;6.038;2022-10-26T00:07:41;6.13;;;3.35;;
59418;SDS011;45224;50.904;6.038;2022-10-26T00:09:11;6.43;;;2.93;;
59418;SDS011;45224;50.904;6.038;2022-10-26T00:10:41;10.87;;;3.33;;
59418;SDS011;45224;50.904;6.038;2022-10-26T00:12:12;8.23;;;3.00;;
59418;SDS011;45224;50.904;6.038;2022-10-26T00:13:42;8.47;;;3.00;;
59418;SDS011;45224;50.904;6.038;2022-10-26T00:15:14;8.35;;;3.30;;
59418;SDS011;45224;50.904;6.038;2022-10-26T00:16:44;7.93;;;3.30;;
59418;SDS011;45224;50.904;6.038;2022-10-26T00:18:15;8.37;;;3.53;;
59418;SDS011;45224;50.904;6.038;2022-10-26T00:19:45;5.17;;;3.03;;
59418;SDS011;45224;50.904;6.038;2022-10-26T00:21:16;10.23;;;3.50;;
59418;SDS011;45224;50.904;6.038;2022-10-26T00:24:17;9.30;;;3.47;;
59418;SDS011;45224;50.904;6.038;2022-10-26T00:25:54;6.90;;;3.33;;
59418;SDS011;45224;50.904;6.038;2022-10-26T00:27:25;5.35;;;3.33;;
59418;SDS011;45224;50.904;6.038;2022-10-26T00:28:56;6.47;;;3.37;;
59418;SDS011;45224;50.904;6.038;2022-10-26T00:30:27;8.30;;;3.10;;
59418;SDS011;45224;50.904;6.038;2022-10-26T00:31:57;6.97;;;3.80;;
59418;SDS011;45224;50.904;6.038;2022-10-26T00:33:28;11.83;;;3.57;;
59418;SDS011;45224;50.904;6.038;2022-10-26T00:34:59;8.13;;;3.58;;
59418;SDS011;45224;50.904;6.038;2022-10-26T00:36:30;9.87;;;3.23;;
59418;SDS011;45224;50.904;6.038;2022-10-26T00:38:00;12.85;;;3.42;;
59418;SDS011;45224;50.904;6.038;2022-10-26T00:39:31;6.07;;;3.60;;
59418;SDS011;45224;50.904;6.038;2022-10-26T00:41:01;8.37;;;3.60;;
59418;SDS011;45224;50.904;6.038;2022-10-26T00:42:31;6.93;;;3.53;;
59418;SDS011;45224;50.904;6.038;2022-10-26T00:44:37;8.17;;;3.50;;
59418;SDS011;45224;50.904;6.038;2022-10-26T00:46:12;8.25;;;3.10;;
59418;SDS011;45224;50.904;6.038;2022-10-26T00:47:48;9.45;;;3.97;;
59418;SDS011;45224;50.904;6.038;2022-10-26T00:49:39;10.18;;;3.20;;
59418;SDS011;45224;50.904;6.038;2022-10-26T00:51:12;7.50;;;3.60;;
59418;SDS011;45224;50.904;6.038;2022-10-26T00:52:49;12.55;;;3.80;;
59418;SDS011;45224;50.904;6.038;2022-10-26T00:54:21;7.20;;;3.67;;
59418;SDS011;45224;50.904;6.038;2022-10-26T00:55:52;8.43;;;3.60;;
59418;SDS011;45224;50.904;6.038;2022-10-26T00:58:54;7.13;;;3.70;;
59418;SDS011;45224;50.904;6.038;2022-10-26T01:00:30;11.65;;;4.00;;
59418;SDS011;45224;50.904;6.038;2022-10-26T01:02:00;8.97;;;3.93;;
59418;SDS011;45224;50.904;6.038;2022-10-26T01:03:31;7.00;;;3.50;;
59418;SDS011;45224;50.904;6.038;2022-10-26T01:05:05;8.70;;;4.13;;
59418;SDS011;45224;50.904;6.038;2022-10-26T01:06:36;5.82;;;3.50;;
59418;SDS011;45224;50.904;6.038;2022-10-26T01:08:07;7.90;;;3.17;;
59418;SDS011;45224;50.904;6.038;2022-10-26T01:09:38;6.80;;;3.42;;
59418;SDS011;45224;50.904;6.038;2022-10-26T01:11:09;10.00;;;3.87;;
59418;SDS011;45224;50.904;6.038;2022-10-26T01:12:40;5.20;;;3.00;;
59418;SDS011;45224;50.904;6.038;2022-10-26T01:14:11;10.10;;;3.70;;
59418;SDS011;45224;50.904;6.038;2022-10-26T01:15:57;9.48;;;3.80;;
59418;SDS011;45224;50.904;6.038;2022-10-26T01:19:51;9.18;;;3.53;;
59418;SDS011;45224;50.904;6.038;2022-10-26T01:23:21;7.82;;;3.13;;
59418;SDS011;45224;50.904;6.038;2022-10-26T01:30:33;6.50;;;3.45;;
59418;SDS011;45224;50.904;6.038;2022-10-26T01:32:11;9.30;;;3.38;;
59418;SDS011;45224;50.904;6.038;2022-10-26T01:33:48;8.38;;;3.42;;
59418;SDS011;45224;50.904;6.038;2022-10-26T01:35:29;8.35;;;3.50;;
59418;SDS011;45224;50.904;6.038;2022-10-26T01:37:06;6.03;;;2.88;;
59418;SDS011;45224;50.904;6.038;2022-10-26T01:38:46;9.45;;;3.05;;
59418;SDS011;45224;50.904;6.038;2022-10-26T01:40:28;8.30;;;3.20;;
59418;SDS011;45224;50.904;6.038;2022-10-26T01:42:05;6.18;;;3.03;;
59418;SDS011;45224;50.904;6.038;2022-10-26T01:43:41;7.30;;;2.95;;
59418;SDS011;45224;50.904;6.038;2022-10-26T01:45:15;7.88;;;3.15;;
59418;SDS011;45224;50.904;6.038;2022-10-26T01:48:19;7.07;;;2.97;;
59418;SDS011;45224;50.904;6.038;2022-10-26T01:49:52;8.38;;;3.00;;
59418;SDS011;45224;50.904;6.038;2022-10-26T01:51:25;8.13;;;3.47;;
59418;SDS011;45224;50.904;6.038;2022-10-26T01:52:58;5.38;;;3.00;;
59418;SDS011;45224;50.904;6.038;2022-10-26T01:54:28;9.77;;;3.53;;
59418;SDS011;45224;50.904;6.038;2022-10-26T01:55:59;9.68;;;3.00;;
59418;SDS011;45224;50.904;6.038;2022-10-26T01:57:32;10.20;;;3.60;;
59418;SDS011;45224;50.904;6.038;2022-10-26T02:00:38;6.57;;;2.78;;
59418;SDS011;45224;50.904;6.038;2022-10-26T02:11:43;6.60;;;2.65;;
59418;SDS011;45224;50.904;6.038;2022-10-26T02:13:21;9.95;;;3.33;;
59418;SDS011;45224;50.904;6.038;2022-10-26T02:15:06;8.80;;;2.70;;
59418;SDS011;45224;50.904;6.038;2022-10-26T02:16:53;6.93;;;2.72;;
59418;SDS011;45224;50.904;6.038;2022-10-26T02:18:34;6.65;;;2.45;;
59418;SDS011;45224;50.904;6.038;2022-10-26T02:20:14;6.22;;;2.63;;
59418;SDS011;45224;50.904;6.038;2022-10-26T02:21:52;5.95;;;2.50;;
59418;SDS011;45224;50.904;6.038;2022-10-26T02:23:27;9.02;;;2.78;;
59418;SDS011;45224;50.904;6.038;2022-10-26T02:25:03;4.72;;;2.20;;
59418;SDS011;45224;50.904;6.038;2022-10-26T02:26:39;11.20;;;2.80;;
59418;SDS011;45224;50.904;6.038;2022-10-26T02:28:15;5.97;;;2.42;;
59418;SDS011;45224;50.904;6.038;2022-10-26T02:29:49;6.68;;;2.33;;
59418;SDS011;45224;50.904;6.038;2022-10-26T02:31:23;9.15;;;2.42;;
59418;SDS011;45224;50.904;6.038;2022-10-26T02:32:55;6.28;;;2.50;;
59418;SDS011;45224;50.904;6.038;2022-10-26T02:34:28;10.80;;;2.80;;
59418;SDS011;45224;50.904;6.038;2022-10-26T02:36:01;6.95;;;2.85;;
59418;SDS011;45224;50.904;6.038;2022-10-26T02:37:34;6.85;;;2.20;;
59418;SDS011;45224;50.904;6.038;2022-10-26T02:39:06;7.38;;;2.72;;
59418;SDS011;45224;50.904;6.038;2022-10-26T02:40:38;6.15;;;2.60;;
59418;SDS011;45224;50.904;6.038;2022-10-26T02:42:10;6.53;;;2.60;;
59418;SDS011;45224;50.904;6.038;2022-10-26T02:43:46;6.90;;;2.70;;
59418;SDS011;45224;50.904;6.038;2022-10-26T02:45:24;7.68;;;3.03;;
59418;SDS011;45224;50.904;6.038;2022-10-26T02:46:57;6.25;;;2.30;;
59418;SDS011;45224;50.904;6.038;2022-10-26T02:49:59;11.60;;;2.37;;
59418;SDS011;45224;50.904;6.038;2022-10-26T02:51:45;4.00;;;1.83;;
59418;SDS011;45224;50.904;6.038;2022-10-26T02:55:11;4.15;;;1.48;;
59418;SDS011;45224;50.904;6.038;2022-10-26T02:56:53;7.28;;;1.70;;
59418;SDS011;45224;50.904;6.038;2022-10-26T02:58:28;5.72;;;1.38;;
59418;SDS011;45224;50.904;6.038;2022-10-26T03:00:05;5.28;;;1.30;;
59418;SDS011;45224;50.904;6.038;2022-10-26T03:01:41;5.10;;;1.23;;
59418;SDS011;45224;50.904;6.038;2022-10-26T03:03:13;2.70;;;1.42;;
59418;SDS011;45224;50.904;6.038;2022-10-26T03:04:44;2.72;;;1.40;;
59418;SDS011;45224;50.904;6.038;2022-10-26T03:06:21;6.63;;;1.40;;
59418;SDS011;45224;50.904;6.038;2022-10-26T03:07:52;5.10;;;1.90;;
59418;SDS011;45224;50.904;6.038;2022-10-26T03:10:54;2.47;;;1.27;;
59418;SDS011;45224;50.904;6.038;2022-10-26T03:12:25;5.03;;;1.83;;
59418;SDS011;45224;50.904;6.038;2022-10-26T03:13:55;3.80;;;1.30;;
59418;SDS011;45224;50.904;6.038;2022-10-26T03:15:26;5.23;;;1.53;;
59418;SDS011;45224;50.904;6.038;2022-10-26T03:16:56;3.97;;;1.40;;
59418;SDS011;45224;50.904;6.038;2022-10-26T03:18:26;3.93;;;1.53;;
59418;SDS011;45224;50.904;6.038;2022-10-26T03:19:57;4.00;;;1.20;;
59418;SDS011;45224;50.904;6.038;2022-10-26T03:21:27;2.90;;;1.27;;
59418;SDS011;45224;50.904;6.038;2022-10-26T03:22:58;2.33;;;1.10;;
59418;SDS011;45224;50.904;6.038;2022-10-26T03:24:28;4.70;;;1.30;;
59418;SDS011;45224;50.904;6.038;2022-10-26T03:25:59;3.13;;;1.20;;
59418;SDS011;45224;50.904;6.038;2022-10-26T03:27:29;2.65;;;1.23;;
59418;SDS011;45224;50.904;6.038;2022-10-26T03:29:00;3.83;;;1.58;;
59418;SDS011;45224;50.904;6.038;2022-10-26T03:30:30;1.93;;;1.13;;
59418;SDS011;45224;50.904;6.038;2022-10-26T03:32:01;4.63;;;1.10;;
59418;SDS011;45224;50.904;6.038;2022-10-26T03:33:31;4.40;;;1.33;;
59418;SDS011;45224;50.904;6.038;2022-10-26T03:35:02;4.80;;;1.27;;
59418;SDS011;45224;50.904;6.038;2022-10-26T03:36:33;3.25;;;1.88;;
59418;SDS011;45224;50.904;6.038;2022-10-26T03:38:03;3.30;;;1.00;;
59418;SDS011;45224;50.904;6.038;2022-10-26T03:39:33;2.20;;;1.10;;
59418;SDS011;45224;50.904;6.038;2022-10-26T03:41:04;6.70;;;1.50;;
59418;SDS011;45224;50.904;6.038;2022-10-26T03:42:35;4.47;;;1.40;;
59418;SDS011;45224;50.904;6.038;2022-10-26T03:44:06;4.93;;;1.23;;
59418;SDS011;45224;50.904;6.038;2022-10-26T03:45:36;2.10;;;1.17;;
59418;SDS011;45224;50.904;6.038;2022-10-26T03:47:07;4.93;;;1.67;;
59418;SDS011;45224;50.904;6.038;2022-10-26T03:48:37;3.63;;;1.17;;
59418;SDS011;45224;50.904;6.038;2022-10-26T03:50:08;5.60;;;1.20;;
59418;SDS011;45224;50.904;6.038;2022-10-26T03:51:39;5.10;;;1.10;;
59418;SDS011;45224;50.904;6.038;2022-10-26T03:53:09;2.97;;;1.30;;
59418;SDS011;45224;50.904;6.038;2022-10-26T03:54:40;3.97;;;1.20;;
59418;SDS011;45224;50.904;6.038;2022-10-26T03:56:10;5.33;;;1.10;;
59418;SDS011;45224;50.904;6.038;2022-10-26T03:57:41;4.57;;;1.10;;
59418;SDS011;45224;50.904;6.038;2022-10-26T04:00:43;1.90;;;0.97;;
59418;SDS011;45224;50.904;6.038;2022-10-26T04:02:13;5.27;;;1.40;;
59418;SDS011;45224;50.904;6.038;2022-10-26T04:03:44;6.35;;;1.65;;
59418;SDS011;45224;50.904;6.038;2022-10-26T04:05:14;2.20;;;1.17;;
59418;SDS011;45224;50.904;6.038;2022-10-26T04:06:45;2.83;;;1.10;;
59418;SDS011;45224;50.904;6.038;2022-10-26T04:08:16;1.53;;;1.00;;
59418;SDS011;45224;50.904;6.038;2022-10-26T04:09:46;6.07;;;1.13;;
59418;SDS011;45224;50.904;6.038;2022-10-26T04:11:17;4.67;;;1.27;;
59418;SDS011;45224;50.904;6.038;2022-10-26T04:12:47;5.23;;;1.40;;
59418;SDS011;45224;50.904;6.038;2022-10-26T04:14:17;4.50;;;1.20;;
59418;SDS011;45224;50.904;6.038;2022-10-26T04:15:48;6.20;;;1.30;;
59418;SDS011;45224;50.904;6.038;2022-10-26T04:17:18;2.88;;;1.17;;
59418;SDS011;45224;50.904;6.038;2022-10-26T04:18:49;1.57;;;1.03;;
59418;SDS011;45224;50.904;6.038;2022-10-26T04:20:19;2.17;;;1.10;;
59418;SDS011;45224;50.904;6.038;2022-10-26T04:21:50;3.70;;;1.17;;
59418;SDS011;45224;50.904;6.038;2022-10-26T04:23:21;4.45;;;1.15;;
59418;SDS011;45224;50.904;6.038;2022-10-26T04:24:51;2.43;;;1.23;;
59418;SDS011;45224;50.904;6.038;2022-10-26T04:26:22;4.27;;;1.10;;
59418;SDS011;45224;50.904;6.038;2022-10-26T04:27:52;4.53;;;1.00;;
59418;SDS011;45224;50.904;6.038;2022-10-26T04:29:23;3.10;;;0.93;;
59418;SDS011;45224;50.904;6.038;2022-10-26T04:30:53;2.43;;;1.20;;
59418;SDS011;45224;50.904;6.038;2022-10-26T04:32:24;2.60;;;1.10;;
59418;SDS011;45224;50.904;6.038;2022-10-26T04:33:54;2.73;;;1.03;;
59418;SDS011;45224;50.904;6.038;2022-10-26T04:35:25;3.93;;;1.30;;
59418;SDS011;45224;50.904;6.038;2022-10-26T04:36:55;4.47;;;1.25;;
59418;SDS011;45224;50.904;6.038;2022-10-26T04:38:26;7.37;;;1.43;;
59418;SDS011;45224;50.904;6.038;2022-10-26T04:39:56;4.73;;;1.43;;
59418;SDS011;45224;50.904;6.038;2022-10-26T04:41:27;2.57;;;1.13;;
59418;SDS011;45224;50.904;6.038;2022-10-26T04:42:57;3.60;;;1.10;;
59418;SDS011;45224;50.904;6.038;2022-10-26T04:44:28;7.35;;;1.40;;
59418;SDS011;45224;50.904;6.038;2022-10-26T04:45:58;4.43;;;1.50;;
59418;SDS011;45224;50.904;6.038;2022-10-26T04:47:29;4.70;;;1.20;;
59418;SDS011;45224;50.904;6.038;2022-10-26T04:48:59;4.27;;;1.10;;
59418;SDS011;45224;50.904;6.038;2022-10-26T04:50:30;5.30;;;1.27;;
59418;SDS011;45224;50.904;6.038;2022-10-26T04:52:00;3.90;;;1.20;;
59418;SDS011;45224;50.904;6.038;2022-10-26T04:53:31;3.50;;;1.10;;
59418;SDS011;45224;50.904;6.038;2022-10-26T04:56:35;3.47;;;1.20;;
59418;SDS011;45224;50.904;6.038;2022-10-26T04:58:05;5.37;;;1.27;;
59418;SDS011;45224;50.904;6.038;2022-10-26T04:59:36;4.10;;;1.10;;
59418;SDS011;45224;50.904;6.038;2022-10-26T05:01:07;4.70;;;1.10;;
59418;SDS011;45224;50.904;6.038;2022-10-26T05:02:37;5.37;;;1.30;;
59418;SDS011;45224;50.904;6.038;2022-10-26T05:04:07;5.53;;;1.77;;
59418;SDS011;45224;50.904;6.038;2022-10-26T05:05:38;3.97;;;1.20;;
59418;SDS011;45224;50.904;6.038;2022-10-26T05:07:08;5.70;;;1.30;;
59418;SDS011;45224;50.904;6.038;2022-10-26T05:08:39;2.50;;;1.10;;
59418;SDS011;45224;50.904;6.038;2022-10-26T05:10:09;5.50;;;1.43;;
59418;SDS011;45224;50.904;6.038;2022-10-26T05:11:39;5.47;;;1.70;;
59418;SDS011;45224;50.904;6.038;2022-10-26T05:13:10;4.53;;;1.47;;
59418;SDS011;45224;50.904;6.038;2022-10-26T05:14:40;3.97;;;1.63;;
59418;SDS011;45224;50.904;6.038;2022-10-26T05:16:11;5.13;;;1.33;;
59418;SDS011;45224;50.904;6.038;2022-10-26T05:17:41;7.53;;;1.53;;
59418;SDS011;45224;50.904;6.038;2022-10-26T05:19:12;7.70;;;1.50;;
59418;SDS011;45224;50.904;6.038;2022-10-26T05:20:42;5.47;;;1.47;;
59418;SDS011;45224;50.904;6.038;2022-10-26T05:22:14;3.08;;;1.30;;
59418;SDS011;45224;50.904;6.038;2022-10-26T05:23:50;6.83;;;1.63;;
59418;SDS011;45224;50.904;6.038;2022-10-26T05:25:23;4.47;;;1.35;;
59418;SDS011;45224;50.904;6.038;2022-10-26T05:26:53;5.30;;;1.58;;
59418;SDS011;45224;50.904;6.038;2022-10-26T05:28:24;12.13;;;1.70;;
59418;SDS011;45224;50.904;6.038;2022-10-26T05:29:54;7.53;;;1.47;;
59418;SDS011;45224;50.904;6.038;2022-10-26T05:31:25;4.23;;;1.63;;
59418;SDS011;45224;50.904;6.038;2022-10-26T05:32:56;2.90;;;1.27;;
59418;SDS011;45224;50.904;6.038;2022-10-26T05:34:27;7.55;;;1.83;;
59418;SDS011;45224;50.904;6.038;2022-10-26T05:35:58;2.97;;;1.40;;
59418;SDS011;45224;50.904;6.038;2022-10-26T05:37:28;6.33;;;1.60;;
59418;SDS011;45224;50.904;6.038;2022-10-26T05:38:58;6.67;;;1.97;;
59418;SDS011;45224;50.904;6.038;2022-10-26T05:40:29;9.43;;;1.83;;
59418;SDS011;45224;50.904;6.038;2022-10-26T05:41:59;5.10;;;1.60;;
59418;SDS011;45224;50.904;6.038;2022-10-26T05:43:30;13.53;;;2.03;;
59418;SDS011;45224;50.904;6.038;2022-10-26T05:45:00;8.67;;;1.90;;
59418;SDS011;45224;50.904;6.038;2022-10-26T05:46:30;7.70;;;1.60;;
59418;SDS011;45224;50.904;6.038;2022-10-26T05:48:01;4.77;;;1.60;;
59418;SDS011;45224;50.904;6.038;2022-10-26T05:49:31;2.57;;;1.47;;
59418;SDS011;45224;50.904;6.038;2022-10-26T05:51:02;5.80;;;1.60;;
59418;SDS011;45224;50.904;6.038;2022-10-26T05:52:42;8.48;;;1.88;;
59418;SDS011;45224;50.904;6.038;2022-10-26T05:54:16;3.15;;;1.50;;
59418;SDS011;45224;50.904;6.038;2022-10-26T05:55:46;6.10;;;2.03;;
59418;SDS011;45224;50.904;6.038;2022-10-26T05:57:17;8.38;;;1.90;;
59418;SDS011;45224;50.904;6.038;2022-10-26T05:58:48;6.43;;;1.98;;
59418;SDS011;45224;50.904;6.038;2022-10-26T06:00:23;8.43;;;1.90;;
59418;SDS011;45224;50.904;6.038;2022-10-26T06:07:21;5.45;;;1.80;;
59418;SDS011;45224;50.904;6.038;2022-10-26T06:08:52;6.03;;;1.98;;
59418;SDS011;45224;50.904;6.038;2022-10-26T06:10:23;7.65;;;2.10;;
59418;SDS011;45224;50.904;6.038;2022-10-26T06:11:53;10.27;;;1.85;;
59418;SDS011;45224;50.904;6.038;2022-10-26T06:13:24;6.03;;;1.85;;
59418;SDS011;45224;50.904;6.038;2022-10-26T06:14:55;5.82;;;1.85;;
59418;SDS011;45224;50.904;6.038;2022-10-26T06:20:02;4.60;;;1.92;;
59418;SDS011;45224;50.904;6.038;2022-10-26T06:22:09;5.30;;;1.67;;
59418;SDS011;45224;50.904;6.038;2022-10-26T06:26:03;4.85;;;1.98;;
59418;SDS011;45224;50.904;6.038;2022-10-26T06:27:42;5.32;;;1.25;;
59418;SDS011;45224;50.904;6.038;2022-10-26T06:31:11;5.60;;;1.83;;
59418;SDS011;45224;50.904;6.038;2022-10-26T06:32:43;4.05;;;1.80;;
59418;SDS011;45224;50.904;6.038;2022-10-26T06:34:21;8.13;;;1.90;;
59418;SDS011;45224;50.904;6.038;2022-10-26T06:36:06;4.13;;;1.88;;
59418;SDS011;45224;50.904;6.038;2022-10-26T06:37:53;7.28;;;2.00;;
59418;SDS011;45224;50.904;6.038;2022-10-26T06:39:26;6.28;;;2.35;;
59418;SDS011;45224;50.904;6.038;2022-10-26T06:41:00;5.07;;;1.92;;
59418;SDS011;45224;50.904;6.038;2022-10-26T06:42:31;4.53;;;2.00;;
59418;SDS011;45224;50.904;6.038;2022-10-26T06:44:03;5.97;;;2.55;;
59418;SDS011;45224;50.904;6.038;2022-10-26T06:45:34;5.15;;;1.80;;
59418;SDS011;45224;50.904;6.038;2022-10-26T06:47:06;6.15;;;2.08;;
59418;SDS011;45224;50.904;6.038;2022-10-26T06:48:46;8.75;;;2.30;;
59418;SDS011;45224;50.904;6.038;2022-10-26T06:50:31;5.03;;;1.98;;
59418;SDS011;45224;50.904;6.038;2022-10-26T06:52:09;5.95;;;2.35;;
59418;SDS011;45224;50.904;6.038;2022-10-26T06:53:56;7.05;;;2.05;;
59418;SDS011;45224;50.904;6.038;2022-10-26T06:55:44;3.33;;;2.13;;
59418;SDS011;45224;50.904;6.038;2022-10-26T06:57:17;6.55;;;2.10;;
59418;SDS011;45224;50.904;6.038;2022-10-26T06:58:49;7.45;;;2.05;;
59418;SDS011;45224;50.904;6.038;2022-10-26T07:00:23;6.97;;;2.50;;
59418;SDS011;45224;50.904;6.038;2022-10-26T07:01:54;6.43;;;2.15;;
59418;SDS011;45224;50.904;6.038;2022-10-26T07:03:24;5.80;;;2.10;;
59418;SDS011;45224;50.904;6.038;2022-10-26T07:04:55;5.10;;;2.37;;
59418;SDS011;45224;50.904;6.038;2022-10-26T07:06:25;8.83;;;2.50;;
59418;SDS011;45224;50.904;6.038;2022-10-26T07:07:56;6.43;;;2.83;;
59418;SDS011;45224;50.904;6.038;2022-10-26T07:09:26;7.17;;;2.30;;
59418;SDS011;45224;50.904;6.038;2022-10-26T07:10:57;6.90;;;2.50;;
59418;SDS011;45224;50.904;6.038;2022-10-26T07:12:27;9.83;;;2.83;;
59418;SDS011;45224;50.904;6.038;2022-10-26T07:13:58;7.13;;;2.37;;
59418;SDS011;45224;50.904;6.038;2022-10-26T07:15:28;7.83;;;2.70;;
59418;SDS011;45224;50.904;6.038;2022-10-26T07:16:58;5.90;;;1.80;;
59418;SDS011;45224;50.904;6.038;2022-10-26T07:18:29;6.93;;;2.20;;
59418;SDS011;45224;50.904;6.038;2022-10-26T07:20:00;7.50;;;1.83;;
59418;SDS011;45224;50.904;6.038;2022-10-26T07:21:30;5.63;;;2.10;;
59418;SDS011;45224;50.904;6.038;2022-10-26T07:23:01;9.80;;;2.10;;
59418;SDS011;45224;50.904;6.038;2022-10-26T07:24:31;6.88;;;2.10;;
59418;SDS011;45224;50.904;6.038;2022-10-26T07:26:02;9.13;;;2.37;;
59418;SDS011;45224;50.904;6.038;2022-10-26T07:27:32;9.43;;;2.43;;
59418;SDS011;45224;50.904;6.038;2022-10-26T07:29:03;3.57;;;1.80;;
59418;SDS011;45224;50.904;6.038;2022-10-26T07:30:33;6.23;;;2.30;;
59418;SDS011;45224;50.904;6.038;2022-10-26T07:32:04;9.93;;;2.43;;
59418;SDS011;45224;50.904;6.038;2022-10-26T07:33:34;8.45;;;2.17;;
59418;SDS011;45224;50.904;6.038;2022-10-26T07:35:05;5.33;;;2.50;;
59418;SDS011;45224;50.904;6.038;2022-10-26T07:36:35;6.70;;;2.17;;
59418;SDS011;45224;50.904;6.038;2022-10-26T07:38:06;7.40;;;2.40;;
59418;SDS011;45224;50.904;6.038;2022-10-26T07:39:41;8.15;;;2.28;;
59418;SDS011;45224;50.904;6.038;2022-10-26T07:41:12;8.73;;;2.60;;
59418;SDS011;45224;50.904;6.038;2022-10-26T07:42:43;4.45;;;2.28;;
59418;SDS011;45224;50.904;6.038;2022-10-26T07:44:13;8.67;;;2.63;;
59418;SDS011;45224;50.904;6.038;2022-10-26T07:45:44;5.17;;;2.57;;
59418;SDS011;45224;50.904;6.038;2022-10-26T07:47:17;7.82;;;2.80;;
59418;SDS011;45224;50.904;6.038;2022-10-26T07:48:48;8.40;;;2.50;;
59418;SDS011;45224;50.904;6.038;2022-10-26T07:50:18;7.33;;;2.50;;
59418;SDS011;45224;50.904;6.038;2022-10-26T07:51:48;6.60;;;2.53;;
59418;SDS011;45224;50.904;6.038;2022-10-26T07:53:19;7.65;;;2.80;;
59418;SDS011;45224;50.904;6.038;2022-10-26T07:54:49;5.97;;;2.60;;
59418;SDS011;45224;50.904;6.038;2022-10-26T07:56:20;8.07;;;2.87;;
59418;SDS011;45224;50.904;6.038;2022-10-26T07:57:50;8.30;;;2.57;;
59418;SDS011;45224;50.904;6.038;2022-10-26T07:59:21;9.53;;;2.73;;
59418;SDS011;45224;50.904;6.038;2022-10-26T08:00:51;10.97;;;2.70;;
59418;SDS011;45224;50.904;6.038;2022-10-26T08:02:23;15.57;;;3.20;;
59418;SDS011;45224;50.904;6.038;2022-10-26T08:03:54;9.55;;;2.72;;
59418;SDS011;45224;50.904;6.038;2022-10-26T08:05:25;6.65;;;2.88;;
59418;SDS011;45224;50.904;6.038;2022-10-26T08:06:56;7.33;;;2.87;;
59418;SDS011;45224;50.904;6.038;2022-10-26T08:08:26;7.70;;;3.10;;
59418;SDS011;45224;50.904;6.038;2022-10-26T08:09:57;8.60;;;2.90;;
59418;SDS011;45224;50.904;6.038;2022-10-26T08:11:27;8.53;;;2.53;;
59418;SDS011;45224;50.904;6.038;2022-10-26T08:12:57;8.13;;;2.70;;
59418;SDS011;45224;50.904;6.038;2022-10-26T08:14:28;7.60;;;2.47;;
59418;SDS011;45224;50.904;6.038;2022-10-26T08:15:59;14.30;;;2.83;;
59418;SDS011;45224;50.904;6.038;2022-10-26T08:17:31;10.65;;;3.00;;
59418;SDS011;45224;50.904;6.038;2022-10-26T08:19:01;7.47;;;3.00;;
59418;SDS011;45224;50.904;6.038;2022-10-26T08:20:32;8.02;;;2.78;;
59418;SDS011;45224;50.904;6.038;2022-10-26T08:22:02;13.32;;;3.20;;
59418;SDS011;45224;50.904;6.038;2022-10-26T08:23:33;6.60;;;3.03;;
59418;SDS011;45224;50.904;6.038;2022-10-26T08:25:03;15.30;;;3.23;;
59418;SDS011;45224;50.904;6.038;2022-10-26T08:26:34;11.85;;;3.00;;
59418;SDS011;45224;50.904;6.038;2022-10-26T08:28:05;11.27;;;3.13;;
59418;SDS011;45224;50.904;6.038;2022-10-26T08:29:35;8.88;;;2.65;;
59418;SDS011;45224;50.904;6.038;2022-10-26T08:31:06;11.15;;;2.90;;
59418;SDS011;45224;50.904;6.038;2022-10-26T08:32:36;10.15;;;3.10;;
59418;SDS011;45224;50.904;6.038;2022-10-26T08:34:07;14.50;;;3.63;;
59418;SDS011;45224;50.904;6.038;2022-10-26T08:37:08;15.80;;;3.60;;
59418;SDS011;45224;50.904;6.038;2022-10-26T08:38:38;11.45;;;3.67;;
59418;SDS011;45224;50.904;6.038;2022-10-26T08:40:10;12.80;;;3.30;;
59418;SDS011;45224;50.904;6.038;2022-10-26T08:41:46;10.38;;;3.05;;
59418;SDS011;45224;50.904;6.038;2022-10-26T08:45:35;12.45;;;3.40;;
59418;SDS011;45224;50.904;6.038;2022-10-26T08:47:53;14.35;;;3.20;;
59418;SDS011;45224;50.904;6.038;2022-10-26T08:49:26;13.73;;;3.92;;
59418;SDS011;45224;50.904;6.038;2022-10-26T08:51:03;12.50;;;3.60;;
59418;SDS011;45224;50.904;6.038;2022-10-26T08:54:48;19.15;;;3.50;;
59418;SDS011;45224;50.904;6.038;2022-10-26T08:56:24;13.45;;;3.20;;
59418;SDS011;45224;50.904;6.038;2022-10-26T08:57:56;16.45;;;3.55;;
59418;SDS011;45224;50.904;6.038;2022-10-26T08:59:43;18.45;;;3.78;;
59418;SDS011;45224;50.904;6.038;2022-10-26T09:01:21;13.93;;;3.58;;
59418;SDS011;45224;50.904;6.038;2022-10-26T09:04:26;17.63;;;3.73;;
59418;SDS011;45224;50.904;6.038;2022-10-26T09:07:55;15.80;;;3.80;;
59418;SDS011;45224;50.904;6.038;2022-10-26T09:11:48;15.80;;;3.65;;
59418;SDS011;45224;50.904;6.038;2022-10-26T09:24:23;13.82;;;3.50;;
59418;SDS011;45224;50.904;6.038;2022-10-26T09:26:00;13.55;;;2.97;;
59418;SDS011;45224;50.904;6.038;2022-10-26T09:27:33;10.80;;;3.28;;
59418;SDS011;45224;50.904;6.038;2022-10-26T09:29:12;12.70;;;3.30;;
59418;SDS011;45224;50.904;6.038;2022-10-26T09:30:43;10.43;;;3.33;;
59418;SDS011;45224;50.904;6.038;2022-10-26T09:32:34;14.43;;;3.42;;
59418;SDS011;45224;50.904;6.038;2022-10-26T09:34:15;12.40;;;3.53;;
59418;SDS011;45224;50.904;6.038;2022-10-26T09:36:00;10.00;;;3.05;;
59418;SDS011;45224;50.904;6.038;2022-10-26T09:37:36;16.67;;;3.70;;
59418;SDS011;45224;50.904;6.038;2022-10-26T09:39:35;12.07;;;3.03;;
59418;SDS011;45224;50.904;6.038;2022-10-26T09:42:56;9.50;;;2.75;;
59418;SDS011;45224;50.904;6.038;2022-10-26T09:44:33;14.45;;;3.25;;
59418;SDS011;45224;50.904;6.038;2022-10-26T09:46:13;12.18;;;3.00;;
59418;SDS011;45224;50.904;6.038;2022-10-26T09:47:49;14.07;;;3.25;;
59418;SDS011;45224;50.904;6.038;2022-10-26T09:49:25;8.82;;;2.70;;
59418;SDS011;45224;50.904;6.038;2022-10-26T09:51:28;14.35;;;2.75;;
59418;SDS011;45224;50.904;6.038;2022-10-26T09:52:59;11.73;;;3.00;;
59418;SDS011;45224;50.904;6.038;2022-10-26T09:54:29;10.90;;;3.10;;
59418;SDS011;45224;50.904;6.038;2022-10-26T09:56:03;11.75;;;2.70;;
59418;SDS011;45224;50.904;6.038;2022-10-26T09:57:37;7.15;;;2.45;;
59418;SDS011;45224;50.904;6.038;2022-10-26T09:59:11;11.60;;;2.60;;
59418;SDS011;45224;50.904;6.038;2022-10-26T10:00:43;6.50;;;2.38;;
59418;SDS011;45224;50.904;6.038;2022-10-26T10:02:34;12.85;;;3.00;;
59418;SDS011;45224;50.904;6.038;2022-10-26T10:04:15;12.48;;;3.13;;
59418;SDS011;45224;50.904;6.038;2022-10-26T10:05:51;11.38;;;2.88;;
59418;SDS011;45224;50.904;6.038;2022-10-26T10:07:22;11.35;;;2.70;;
59418;SDS011;45224;50.904;6.038;2022-10-26T10:10:52;8.27;;;2.67;;
59418;SDS011;45224;50.904;6.038;2022-10-26T10:12:24;6.15;;;2.10;;
59418;SDS011;45224;50.904;6.038;2022-10-26T10:13:54;6.50;;;2.13;;
59418;SDS011;45224;50.904;6.038;2022-10-26T10:15:37;5.38;;;2.50;;
59418;SDS011;45224;50.904;6.038;2022-10-26T10:17:14;10.85;;;2.65;;
59418;SDS011;45224;50.904;6.038;2022-10-26T10:18:53;15.18;;;2.63;;
59418;SDS011;45224;50.904;6.038;2022-10-26T10:20:31;8.00;;;2.20;;
59418;SDS011;45224;50.904;6.038;2022-10-26T10:23:50;10.98;;;2.55;;
59418;SDS011;45224;50.904;6.038;2022-10-26T10:25:25;11.93;;;2.58;;
59418;SDS011;45224;50.904;6.038;2022-10-26T10:28:54;7.82;;;2.38;;
59418;SDS011;45224;50.904;6.038;2022-10-26T10:30:28;6.55;;;2.10;;
59418;SDS011;45224;50.904;6.038;2022-10-26T10:32:01;10.55;;;2.80;;
59418;SDS011;45224;50.904;6.038;2022-10-26T10:33:36;9.45;;;2.38;;
59418;SDS011;45224;50.904;6.038;2022-10-26T10:35:32;7.95;;;2.33;;
59418;SDS011;45224;50.904;6.038;2022-10-26T10:37:02;11.90;;;2.85;;
59418;SDS011;45224;50.904;6.038;2022-10-26T10:38:42;10.15;;;2.78;;